Time;durP1;ratioP1;P1;durP2;ratioP2;P2;SDS_P1;SDS_P2;PMS_P1;PMS_P2;Temp;Humidity;BMP_temperature;BMP_pressure;BME280_temperature;BME280_humidity;BME280_pressure;Samples;Min_cycle;Max_cycle;Signal;HPM_P1;HPM_P2
2023/09/06 00:02:04;;;;;;;4.10;2.50;;;18.00;94.80;;;;;;4992059;28;21316;-64
2023/09/06 00:04:32;;;;;;;2.80;2.30;;;17.90;94.60;;;;;;4970329;28;20491;-64
2023/09/06 00:07:00;;;;;;;2.20;1.70;;;17.70;94.50;;;;;;5002760;28;21370;-64
2023/09/06 00:09:27;;;;;;;2.40;2.07;;;17.60;94.20;;;;;;4984047;28;21041;-64
2023/09/06 00:11:54;;;;;;;3.27;2.40;;;17.50;94.40;;;;;;4998324;28;20477;-64
2023/09/06 00:14:21;;;;;;;3.23;2.20;;;17.50;94.90;;;;;;4979695;28;20470;-64
2023/09/06 00:16:47;;;;;;;5.10;2.70;;;17.40;94.70;;;;;;4988560;28;20469;-64
2023/09/06 00:19:14;;;;;;;3.27;2.40;;;17.40;94.90;;;;;;4988551;28;20946;-64
2023/09/06 00:21:43;;;;;;;3.00;2.07;;;17.20;94.80;;;;;;4995798;28;20472;-64
2023/09/06 00:24:12;;;;;;;3.97;2.43;;;17.20;94.80;;;;;;4996656;28;20532;-64
2023/09/06 00:26:39;;;;;;;3.30;2.00;;;17.10;94.70;;;;;;4993192;28;20485;-64
2023/09/06 00:29:06;;;;;;;2.90;2.37;;;17.00;94.70;;;;;;4995684;28;20487;-64
2023/09/06 00:31:33;;;;;;;2.80;2.43;;;17.00;94.80;;;;;;4993321;28;20509;-64
2023/09/06 00:34:00;;;;;;;2.93;2.20;;;16.90;95.10;;;;;;4988322;28;20531;-64
2023/09/06 00:36:29;;;;;;;5.63;2.70;;;17.00;95.40;;;;;;4992090;28;20485;-64
2023/09/06 00:38:56;;;;;;;5.93;3.00;;;17.00;95.40;;;;;;4974644;28;20569;-64
2023/09/06 00:41:25;;;;;;;3.10;2.20;;;17.00;95.10;;;;;;4997302;28;20488;-64
2023/09/06 00:43:52;;;;;;;4.37;2.10;;;16.90;94.80;;;;;;5004467;28;20474;-64
2023/09/06 00:46:20;;;;;;;2.87;2.10;;;16.70;94.80;;;;;;4982307;28;20532;-64
2023/09/06 00:48:50;;;;;;;2.67;2.03;;;16.60;94.70;;;;;;4988645;28;20478;-64
2023/09/06 00:51:18;;;;;;;2.50;2.10;;;16.50;94.70;;;;;;4983178;28;20472;-63
2023/09/06 00:53:45;;;;;;;4.10;2.57;;;16.40;94.90;;;;;;5000689;28;20501;-63
2023/09/06 00:56:14;;;;;;;3.67;2.33;;;16.30;95.20;;;;;;4988655;28;20488;-63
2023/09/06 00:58:42;;;;;;;2.77;2.13;;;16.30;95.70;;;;;;4985374;28;21088;-62
2023/09/06 01:01:11;;;;;;;5.50;3.53;;;16.40;95.60;;;;;;4996735;28;20481;-62
2023/09/06 01:03:40;;;;;;;3.67;2.53;;;16.40;95.30;;;;;;4987712;28;20486;-62
2023/09/06 01:06:14;;;;;;;5.03;3.10;;;16.40;95.20;;;;;;4980953;28;20485;-63
2023/09/06 01:08:46;;;;;;;2.90;2.57;;;16.40;95.20;;;;;;4995811;28;20863;-62
2023/09/06 01:11:18;;;;;;;3.60;2.23;;;16.40;95.40;;;;;;4998126;28;20462;-64
2023/09/06 01:13:51;;;;;;;2.83;2.43;;;16.30;95.20;;;;;;4977540;28;20481;-64
2023/09/06 01:16:21;;;;;;;3.07;2.20;;;16.30;95.60;;;;;;4986301;28;20473;-64
2023/09/06 01:18:48;;;;;;;3.50;2.33;;;16.30;95.50;;;;;;4977887;28;20487;-64
2023/09/06 01:21:18;;;;;;;6.03;2.73;;;16.30;95.30;;;;;;4995119;28;20483;-64
2023/09/06 01:23:48;;;;;;;2.73;2.13;;;16.30;95.10;;;;;;4973820;28;20524;-64
2023/09/06 01:26:16;;;;;;;3.33;2.50;;;16.20;94.70;;;;;;5006711;28;20474;-64
2023/09/06 01:28:50;;;;;;;3.40;2.67;;;16.10;94.60;;;;;;4992746;28;20481;-64
2023/09/06 01:31:17;;;;;;;5.37;2.90;;;16.10;94.70;;;;;;4991739;28;20485;-64
2023/09/06 01:33:44;;;;;;;5.40;2.40;;;16.00;95.00;;;;;;4992080;28;20496;-64
2023/09/06 01:36:11;;;;;;;3.43;2.83;;;16.00;95.10;;;;;;4986762;28;20639;-64
2023/09/06 01:38:38;;;;;;;4.57;2.70;;;15.90;94.80;;;;;;5005431;28;20489;-64
2023/09/06 01:41:12;;;;;;;3.07;2.40;;;15.90;94.90;;;;;;4995694;28;20908;-64
2023/09/06 01:43:38;;;;;;;2.33;2.13;;;15.80;94.80;;;;;;4985525;28;20493;-64
2023/09/06 01:46:05;;;;;;;4.30;3.20;;;15.70;94.80;;;;;;4990970;28;20534;-64
2023/09/06 01:48:32;;;;;;;2.83;2.30;;;15.70;94.80;;;;;;5002668;28;20472;-64
2023/09/06 01:50:59;;;;;;;3.17;2.13;;;15.60;94.80;;;;;;4999496;28;20481;-65
2023/09/06 01:53:26;;;;;;;4.60;2.40;;;15.50;94.90;;;;;;5003259;28;20486;-64
2023/09/06 01:55:53;;;;;;;2.40;1.70;;;15.40;94.80;;;;;;4991382;28;20482;-64
2023/09/06 01:58:21;;;;;;;3.50;2.00;;;15.30;94.70;;;;;;4994283;28;21008;-64
2023/09/06 02:00:48;;;;;;;3.83;2.30;;;15.20;94.80;;;;;;5000479;28;20490;-64
2023/09/06 02:03:17;;;;;;;3.90;2.50;;;15.10;95.40;;;;;;4979782;28;20490;-64
2023/09/06 02:05:44;;;;;;;5.33;2.50;;;14.90;96.40;;;;;;4993340;28;20510;-64
2023/09/06 02:08:11;;;;;;;3.20;2.40;;;14.90;97.20;;;;;;5007749;28;20476;-64
2023/09/06 02:10:38;;;;;;;2.80;2.17;;;14.80;96.80;;;;;;4994237;28;20480;-64
2023/09/06 02:13:04;;;;;;;2.80;2.43;;;14.70;96.30;;;;;;4995199;28;20476;-63
2023/09/06 02:15:32;;;;;;;3.00;2.27;;;14.70;96.00;;;;;;4991977;28;21278;-62
2023/09/06 02:17:59;;;;;;;3.50;2.07;;;14.80;95.90;;;;;;4989588;28;20243;-62
2023/09/06 02:20:28;;;;;;;3.97;2.87;;;14.80;96.20;;;;;;4997526;28;20488;-62
2023/09/06 02:22:56;;;;;;;3.80;2.80;;;14.80;96.00;;;;;;4983047;28;20481;-64
2023/09/06 02:25:26;;;;;;;4.00;2.20;;;14.90;96.10;;;;;;5002910;28;20496;-64
2023/09/06 02:27:53;;;;;;;5.00;2.37;;;14.90;96.20;;;;;;5002866;28;20488;-65
2023/09/06 02:30:21;;;;;;;5.73;2.60;;;15.00;96.10;;;;;;5002643;28;21201;-64
2023/09/06 02:32:49;;;;;;;2.20;1.67;;;15.00;95.50;;;;;;4993562;28;20482;-64
2023/09/06 02:35:16;;;;;;;4.20;2.20;;;15.00;95.40;;;;;;4987863;28;21080;-64
2023/09/06 02:37:43;;;;;;;3.40;1.80;;;14.90;95.30;;;;;;4998210;28;20480;-64
2023/09/06 02:40:14;;;;;;;2.83;1.60;;;14.90;95.20;;;;;;4993873;28;21041;-64
2023/09/06 02:42:41;;;;;;;4.43;2.20;;;14.90;95.10;;;;;;4997097;28;20990;-64
2023/09/06 02:45:10;;;;;;;2.40;1.90;;;14.80;95.30;;;;;;4986080;28;20911;-64
2023/09/06 02:47:39;;;;;;;2.73;2.40;;;14.80;95.70;;;;;;4985739;28;20500;-64
2023/09/06 02:50:11;;;;;;;3.60;2.10;;;14.80;95.50;;;;;;4996888;28;20469;-64
2023/09/06 02:52:38;;;;;;;2.97;2.30;;;14.90;95.50;;;;;;4991911;28;20493;-64
2023/09/06 02:55:10;;;;;;;3.20;1.90;;;14.80;95.20;;;;;;4992632;28;20482;-64
2023/09/06 02:57:38;;;;;;;3.60;2.23;;;14.80;95.10;;;;;;4992109;28;20527;-64
2023/09/06 03:00:18;;;;;;;2.40;1.67;;;14.70;94.90;;;;;;4992801;28;20522;-64
2023/09/06 03:02:46;;;;;;;3.17;2.33;;;14.70;94.80;;;;;;4975763;28;20489;-64
2023/09/06 03:05:17;;;;;;;3.93;2.20;;;14.60;94.80;;;;;;5004347;28;20528;-64
2023/09/06 03:07:48;;;;;;;4.17;1.80;;;14.40;94.90;;;;;;4984380;28;20576;-64
2023/09/06 03:10:16;;;;;;;2.67;1.90;;;14.40;94.90;;;;;;4990289;28;20488;-64
2023/09/06 03:12:43;;;;;;;3.43;2.80;;;14.30;95.30;;;;;;4984056;28;20494;-64
2023/09/06 03:15:11;;;;;;;4.43;2.40;;;14.30;95.00;;;;;;5007592;28;20522;-64
2023/09/06 03:17:38;;;;;;;2.70;2.30;;;14.30;95.20;;;;;;4999866;28;20488;-64
2023/09/06 03:20:18;;;;;;;3.90;2.33;;;14.30;95.10;;;;;;4995941;28;20557;-64
2023/09/06 03:22:50;;;;;;;2.20;1.67;;;14.30;95.20;;;;;;4993479;28;20496;-64
2023/09/06 03:25:17;;;;;;;3.23;1.87;;;14.30;95.00;;;;;;4993329;28;20531;-64
2023/09/06 03:27:43;;;;;;;2.67;1.70;;;14.30;94.90;;;;;;5005278;28;20483;-64
2023/09/06 03:30:14;;;;;;;3.00;2.30;;;14.30;94.80;;;;;;4996656;28;20847;-64
2023/09/06 03:32:43;;;;;;;2.10;1.63;;;14.20;95.10;;;;;;4987891;28;20503;-64
2023/09/06 03:35:10;;;;;;;3.63;1.97;;;14.20;95.50;;;;;;4997489;28;20567;-64
2023/09/06 03:37:37;;;;;;;5.50;2.27;;;14.20;95.20;;;;;;4990878;28;21008;-64
2023/09/06 03:40:25;;;;;;;2.33;1.40;;;14.20;95.50;;;;;;4995993;28;20542;-64
2023/09/06 03:42:53;;;;;;;4.37;2.30;;;14.20;95.70;;;;;;4981066;28;20490;-64
2023/09/06 03:45:21;;;;;;;6.07;3.30;;;14.30;95.70;;;;;;4989779;28;20483;-64
2023/09/06 03:47:48;;;;;;;5.10;2.80;;;14.40;95.60;;;;;;5007746;28;20482;-64
2023/09/06 03:50:16;;;;;;;3.27;2.60;;;14.40;95.60;;;;;;4998345;28;21001;-65
2023/09/06 03:52:44;;;;;;;4.30;2.40;;;14.40;95.60;;;;;;4983428;28;20486;-64
2023/09/06 03:55:12;;;;;;;2.73;1.80;;;14.50;95.60;;;;;;4992599;28;20478;-64
2023/09/06 03:57:39;;;;;;;4.10;2.10;;;14.40;95.50;;;;;;4981959;28;20505;-64
2023/09/06 04:00:26;;;;;;;2.93;2.27;;;14.40;95.50;;;;;;4988809;28;20581;-64
2023/09/06 04:02:54;;;;;;;3.17;2.00;;;14.40;95.40;;;;;;4976017;28;20478;-64
2023/09/06 04:05:26;;;;;;;5.33;2.70;;;14.40;95.50;;;;;;4993017;28;20477;-65
2023/09/06 04:07:56;;;;;;;2.47;1.97;;;14.30;95.40;;;;;;4996227;28;20982;-64
2023/09/06 04:10:27;;;;;;;2.13;1.50;;;14.20;94.90;;;;;;4987928;28;20480;-64
2023/09/06 04:12:55;;;;;;;2.60;1.70;;;14.10;94.70;;;;;;4974595;28;20485;-65
2023/09/06 04:15:23;;;;;;;3.00;1.60;;;14.00;94.70;;;;;;5001293;28;20961;-65
2023/09/06 04:17:55;;;;;;;2.90;1.70;;;13.90;94.80;;;;;;4992280;28;20484;-64
2023/09/06 04:20:24;;;;;;;2.70;1.83;;;13.90;94.80;;;;;;4984867;28;21309;-64
2023/09/06 04:22:54;;;;;;;3.90;1.67;;;13.80;94.90;;;;;;4990358;28;20581;-64
2023/09/06 04:25:22;;;;;;;3.40;1.90;;;13.70;94.80;;;;;;5006113;28;21094;-64
2023/09/06 04:27:54;;;;;;;2.90;1.47;;;13.70;94.80;;;;;;4980067;28;20480;-64
2023/09/06 04:30:23;;;;;;;2.67;2.47;;;13.60;94.90;;;;;;4980486;28;20524;-64
2023/09/06 04:32:49;;;;;;;2.73;1.77;;;13.50;95.10;;;;;;4965809;28;20476;-62
2023/09/06 04:35:17;;;;;;;3.13;2.10;;;13.50;95.40;;;;;;4971476;28;21015;-62
2023/09/06 04:37:44;;;;;;;4.67;2.53;;;13.40;95.40;;;;;;5004261;28;21132;-62
2023/09/06 04:40:13;;;;;;;3.43;2.30;;;13.40;95.60;;;;;;5000051;28;20481;-61
2023/09/06 04:42:40;;;;;;;3.03;2.20;;;13.40;95.80;;;;;;4994785;28;21136;-65
2023/09/06 04:45:10;;;;;;;3.87;2.00;;;13.50;96.00;;;;;;5003841;28;20990;-64
2023/09/06 04:47:42;;;;;;;5.47;3.83;;;13.50;95.70;;;;;;4991931;28;20476;-64
2023/09/06 04:50:11;;;;;;;9.23;2.43;;;13.60;95.50;;;;;;4991011;28;21207;-64
2023/09/06 04:52:43;;;;;;;5.53;3.30;;;13.60;95.40;;;;;;4976204;28;20485;-64
2023/09/06 04:55:12;;;;;;;3.10;1.77;;;13.60;95.40;;;;;;4998072;28;20485;-65
2023/09/06 04:57:39;;;;;;;3.20;2.00;;;13.60;95.30;;;;;;5005832;28;20484;-65
2023/09/06 05:00:17;;;;;;;4.63;1.80;;;13.60;95.30;;;;;;4998829;28;20823;-65
2023/09/06 05:02:45;;;;;;;2.80;1.53;;;13.60;95.30;;;;;;4987396;28;20576;-64
2023/09/06 05:05:12;;;;;;;3.30;1.97;;;13.60;95.20;;;;;;4998127;28;20982;-65
2023/09/06 05:07:39;;;;;;;8.70;2.57;;;13.50;95.00;;;;;;4989678;28;21779;-65
2023/09/06 05:10:07;;;;;;;3.03;1.63;;;13.40;94.90;;;;;;4982827;28;20495;-64
2023/09/06 05:12:33;;;;;;;7.20;2.00;;;13.30;95.20;;;;;;4992665;28;21005;-65
2023/09/06 05:15:01;;;;;;;3.27;1.90;;;13.30;95.10;;;;;;4977142;28;21195;-65
2023/09/06 05:17:30;;;;;;;3.03;1.53;;;13.20;95.10;;;;;;4994531;28;21022;-65
2023/09/06 05:20:27;;;;;;;3.80;2.40;;;13.20;95.10;;;;;;4990401;28;20506;-65
2023/09/06 05:22:55;;;;;;;3.30;2.27;;;13.20;95.20;;;;;;4986763;28;20522;-65
2023/09/06 05:25:22;;;;;;;3.43;1.70;;;13.20;95.50;;;;;;4999185;28;20497;-65
2023/09/06 05:27:50;;;;;;;2.57;1.77;;;13.20;95.50;;;;;;4984592;28;20716;-65
2023/09/06 05:30:17;;;;;;;6.93;2.23;;;13.30;95.40;;;;;;4992511;28;20480;-65
2023/09/06 05:32:45;;;;;;;3.60;2.63;;;13.30;95.70;;;;;;4990858;28;20845;-65
2023/09/06 05:35:12;;;;;;;9.77;2.13;;;13.30;95.90;;;;;;5000216;28;20471;-65
2023/09/06 05:37:40;;;;;;;4.07;2.30;;;13.40;96.20;;;;;;4997054;28;20497;-65
2023/09/06 05:40:08;;;;;;;8.83;3.30;;;13.50;96.20;;;;;;5003560;28;20487;-65
2023/09/06 05:42:35;;;;;;;11.57;3.43;;;13.60;96.40;;;;;;4982632;28;20478;-64
2023/09/06 05:45:03;;;;;;;4.67;2.40;;;13.70;96.30;;;;;;4982213;28;20579;-65
2023/09/06 05:47:30;;;;;;;3.37;3.07;;;13.70;96.30;;;;;;4987614;28;20552;-65
2023/09/06 05:49:58;;;;;;;5.53;3.30;;;13.80;96.30;;;;;;4986788;28;20480;-65
2023/09/06 05:52:28;;;;;;;4.47;2.07;;;13.90;96.20;;;;;;4986688;28;20482;-65
2023/09/06 05:54:55;;;;;;;3.90;2.97;;;13.90;96.10;;;;;;5003248;28;20495;-65
2023/09/06 05:57:22;;;;;;;3.27;2.07;;;14.00;95.90;;;;;;4990872;28;21189;-65
2023/09/06 05:59:48;;;;;;;2.77;2.10;;;14.00;95.50;;;;;;4996340;28;20700;-65
2023/09/06 06:02:15;;;;;;;2.73;2.03;;;13.90;95.70;;;;;;4988810;28;20510;-65
2023/09/06 06:04:45;;;;;;;3.57;2.70;;;13.80;95.90;;;;;;4987315;28;20506;-65
2023/09/06 06:07:13;;;;;;;3.03;2.20;;;13.70;96.50;;;;;;4990025;28;20489;-65
2023/09/06 06:09:40;;;;;;;5.80;2.83;;;13.70;96.80;;;;;;4999555;28;20499;-65
2023/09/06 06:12:07;;;;;;;4.67;2.60;;;13.70;97.50;;;;;;5000796;28;20484;-65
2023/09/06 06:14:36;;;;;;;5.23;2.83;;;13.80;97.70;;;;;;4986384;28;20507;-65
2023/09/06 06:17:05;;;;;;;10.20;3.03;;;14.00;97.70;;;;;;4989160;28;20819;-65
2023/09/06 06:19:31;;;;;;;4.17;2.77;;;14.10;98.20;;;;;;4978005;28;20488;-65
2023/09/06 06:21:58;;;;;;;3.17;2.50;;;14.30;97.80;;;;;;5008399;28;21019;-65
2023/09/06 06:24:26;;;;;;;4.90;3.10;;;14.50;98.10;;;;;;4998465;28;20477;-65
2023/09/06 06:26:54;;;;;;;4.50;2.93;;;14.60;98.00;;;;;;4979987;28;20479;-65
2023/09/06 06:29:20;;;;;;;4.23;3.30;;;14.90;99.00;;;;;;4999372;28;20596;-64
2023/09/06 06:31:47;;;;;;;5.77;3.67;;;15.10;99.10;;;;;;4997047;28;20486;-65
2023/09/06 06:34:17;;;;;;;4.30;3.40;;;15.30;98.90;;;;;;5001484;28;20489;-64
2023/09/06 06:36:43;;;;;;;4.90;3.40;;;15.50;99.10;;;;;;4985926;28;20476;-65
2023/09/06 06:39:12;;;;;;;6.70;4.17;;;15.70;99.20;;;;;;4992955;28;20848;-65
2023/09/06 06:41:41;;;;;;;9.70;4.67;;;16.10;99.90;;;;;;4987254;28;20494;-65
2023/09/06 06:44:08;;;;;;;8.57;5.67;;;16.90;99.90;;;;;;4972727;28;20482;-65
2023/09/06 06:46:37;;;;;;;11.00;7.03;;;18.00;99.90;;;;;;5008471;28;20976;-66
2023/09/06 06:49:07;;;;;;;10.03;5.80;;;19.40;99.30;;;;;;4986122;28;20498;-66
2023/09/06 06:51:38;;;;;;;4.87;4.37;;;20.70;97.20;;;;;;4981164;28;20487;-63
2023/09/06 06:54:05;;;;;;;7.27;4.23;;;21.80;95.50;;;;;;4971114;28;20776;-63
2023/09/06 06:56:32;;;;;;;5.90;4.23;;;22.90;94.50;;;;;;4985768;28;20973;-63
2023/09/06 06:59:01;;;;;;;5.33;3.40;;;23.70;93.80;;;;;;4992981;28;20491;-63
2023/09/06 07:01:27;;;;;;;6.33;4.00;;;24.40;92.60;;;;;;4987717;28;20498;-66
2023/09/06 07:03:55;;;;;;;4.60;4.20;;;24.90;91.80;;;;;;5003788;28;20492;-67
2023/09/06 07:06:22;;;;;;;4.20;3.30;;;25.40;91.40;;;;;;5000245;28;21151;-66
2023/09/06 07:08:49;;;;;;;3.70;3.30;;;25.80;91.20;;;;;;4975969;28;20489;-66
2023/09/06 07:11:17;;;;;;;4.60;3.17;;;26.00;91.00;;;;;;5013884;28;20482;-67
2023/09/06 07:13:47;;;;;;;5.27;3.70;;;26.20;90.80;;;;;;4967143;28;20581;-66
2023/09/06 07:16:15;;;;;;;4.43;4.03;;;26.30;90.50;;;;;;4996398;28;20953;-66
2023/09/06 07:18:42;;;;;;;8.27;4.30;;;26.30;90.40;;;;;;4983343;28;20485;-67
2023/09/06 07:21:09;;;;;;;6.87;3.90;;;26.20;90.40;;;;;;4984216;28;20488;-67
2023/09/06 07:23:36;;;;;;;6.27;4.40;;;26.10;90.20;;;;;;5001840;28;20496;-67
2023/09/06 07:26:04;;;;;;;3.87;3.57;;;26.10;90.40;;;;;;4992378;28;20490;-66
2023/09/06 07:28:38;;;;;;;5.47;4.10;;;26.10;90.40;;;;;;4987912;28;20486;-66
2023/09/06 07:31:05;;;;;;;4.37;3.77;;;25.90;90.40;;;;;;4990649;28;20480;-65
2023/09/06 07:33:34;;;;;;;6.67;4.33;;;25.80;90.60;;;;;;4993131;28;20500;-67
2023/09/06 07:36:01;;;;;;;5.00;4.20;;;25.70;90.60;;;;;;4994343;28;20487;-66
2023/09/06 07:38:28;;;;;;;4.20;3.70;;;25.60;90.70;;;;;;4996046;28;20487;-66
2023/09/06 07:40:59;;;;;;;5.27;4.17;;;25.50;90.60;;;;;;5000098;28;20484;-67
2023/09/06 07:43:28;;;;;;;5.27;3.90;;;25.40;90.70;;;;;;4972100;28;20485;-66
2023/09/06 07:45:56;;;;;;;4.97;4.10;;;25.40;91.00;;;;;;4988411;28;20490;-67
2023/09/06 07:48:23;;;;;;;3.90;3.13;;;25.40;91.50;;;;;;4976244;28;20576;-66
2023/09/06 07:50:52;;;;;;;4.03;3.63;;;25.30;91.20;;;;;;5007128;28;20472;-67
2023/09/06 07:53:18;;;;;;;5.57;3.90;;;25.30;91.60;;;;;;4983269;28;20470;-66
2023/09/06 07:55:46;;;;;;;9.87;4.40;;;25.30;91.60;;;;;;4988044;28;20520;-66
2023/09/06 07:58:13;;;;;;;5.23;3.90;;;25.20;91.10;;;;;;4981503;28;20501;-67
2023/09/06 08:00:40;;;;;;;6.13;3.83;;;25.30;91.80;;;;;;4996502;28;20987;-67
2023/09/06 08:03:07;;;;;;;8.33;5.13;;;25.30;91.20;;;;;;4987883;28;20616;-66
2023/09/06 08:05:36;;;;;;;4.33;3.60;;;25.40;91.80;;;;;;5001160;28;20543;-67
2023/09/06 08:08:05;;;;;;;9.47;5.23;;;25.50;91.40;;;;;;4998510;28;20492;-67
2023/09/06 08:10:32;;;;;;;5.37;3.93;;;25.60;91.60;;;;;;4995550;28;20465;-67
2023/09/06 08:12:59;;;;;;;4.47;3.80;;;25.70;91.70;;;;;;4985943;28;20707;-65
2023/09/06 08:15:26;;;;;;;5.00;3.53;;;25.80;90.60;;;;;;4984923;28;20484;-64
2023/09/06 08:17:53;;;;;;;8.07;4.30;;;26.00;91.20;;;;;;5003066;28;20486;-65
2023/09/06 08:20:20;;;;;;;5.60;3.87;;;26.10;91.00;;;;;;4980975;28;20676;-65
2023/09/06 08:22:47;;;;;;;4.47;4.00;;;26.20;90.10;;;;;;4998712;28;20499;-65
2023/09/06 08:25:17;;;;;;;4.30;3.90;;;26.30;91.60;;;;;;4989536;28;20985;-65
2023/09/06 08:27:44;;;;;;;3.83;3.43;;;26.40;90.60;;;;;;4981242;28;20583;-64
2023/09/06 08:30:12;;;;;;;4.17;3.37;;;26.60;90.60;;;;;;4983578;28;20565;-65
2023/09/06 08:32:39;;;;;;;4.83;4.33;;;26.70;90.00;;;;;;4992953;28;20486;-65
2023/09/06 08:35:07;;;;;;;4.13;3.30;;;26.80;90.50;;;;;;4993971;28;21167;-65
2023/09/06 08:37:34;;;;;;;5.50;3.70;;;26.70;89.40;;;;;;4992853;28;20493;-65
2023/09/06 08:40:01;;;;;;;4.67;3.80;;;26.80;90.40;;;;;;4989597;28;20479;-64
2023/09/06 08:42:33;;;;;;;9.70;4.60;;;26.90;90.30;;;;;;4998240;28;20567;-65
2023/09/06 08:45:01;;;;;;;4.73;4.33;;;27.00;89.90;;;;;;4997077;28;20500;-65
2023/09/06 08:47:29;;;;;;;4.70;4.10;;;27.10;90.20;;;;;;4987106;28;20452;-65
2023/09/06 08:49:56;;;;;;;8.90;5.07;;;27.20;89.40;;;;;;4987777;28;20468;-64
2023/09/06 08:52:24;;;;;;;6.10;4.10;;;27.30;90.10;;;;;;4988447;28;20475;-64
2023/09/06 08:54:51;;;;;;;4.87;4.27;;;27.40;90.50;;;;;;4986944;28;20489;-64
2023/09/06 08:57:19;;;;;;;7.30;4.93;;;27.60;90.30;;;;;;5001495;28;20473;-65
2023/09/06 08:59:48;;;;;;;5.63;4.23;;;27.60;87.50;;;;;;4974116;28;20485;-65
2023/09/06 09:02:16;;;;;;;6.63;4.57;;;27.60;88.30;;;;;;4986623;28;20520;-65
2023/09/06 09:04:43;;;;;;;9.10;4.07;;;27.70;88.30;;;;;;4987569;28;20856;-64
2023/09/06 09:07:11;;;;;;;6.80;4.43;;;27.80;89.20;;;;;;4990961;28;20546;-65
2023/09/06 09:09:57;;;;;;;4.40;3.50;;;27.80;87.80;;;;;;4991766;28;20489;-64
2023/09/06 09:12:25;;;;;;;7.67;3.70;;;27.80;86.50;;;;;;4989025;28;20489;-68
2023/09/06 09:14:54;;;;;;;4.40;3.90;;;27.90;88.20;;;;;;5000610;28;20462;-67
2023/09/06 09:17:22;;;;;;;6.97;4.00;;;28.00;88.10;;;;;;4989490;28;20546;-69
2023/09/06 09:19:50;;;;;;;4.43;3.83;;;28.00;87.40;;;;;;4991909;28;20472;-68
2023/09/06 09:22:23;;;;;;;5.93;4.77;;;28.10;86.80;;;;;;4984801;28;20468;-67
2023/09/06 09:24:50;;;;;;;4.23;3.83;;;28.20;86.80;;;;;;4996651;28;20949;-68
2023/09/06 09:27:18;;;;;;;8.33;4.43;;;28.20;87.40;;;;;;4991812;28;20488;-67
2023/09/06 09:29:47;;;;;;;6.70;4.30;;;28.30;87.50;;;;;;4992526;28;20463;-67
2023/09/06 09:32:15;;;;;;;4.73;3.70;;;28.50;88.70;;;;;;4972458;28;20799;-67
2023/09/06 09:34:43;;;;;;;5.57;4.40;;;28.60;88.10;;;;;;4999158;28;20527;-66
2023/09/06 09:37:10;;;;;;;4.87;3.90;;;28.70;87.40;;;;;;4974418;28;21007;-67
2023/09/06 09:39:37;;;;;;;4.57;3.70;;;28.80;85.90;;;;;;4989207;28;20509;-68
2023/09/06 09:42:05;;;;;;;5.33;3.80;;;28.90;87.80;;;;;;4981548;28;20460;-68
2023/09/06 09:44:33;;;;;;;4.10;3.40;;;28.80;87.00;;;;;;4992422;28;20452;-67
2023/09/06 09:47:10;;;;;;;5.33;3.90;;;28.90;86.80;;;;;;4997405;28;20467;-66
2023/09/06 09:49:40;;;;;;;5.10;4.23;;;29.00;87.50;;;;;;4972115;28;20463;-68
2023/09/06 09:52:10;;;;;;;6.10;4.47;;;29.10;86.90;;;;;;5002698;28;20472;-68
2023/09/06 09:54:40;;;;;;;6.93;3.87;;;29.20;90.00;;;;;;4972414;28;20488;-66
2023/09/06 09:57:08;;;;;;;5.10;4.33;;;29.30;88.10;;;;;;5000023;28;20862;-67
2023/09/06 09:59:37;;;;;;;4.00;3.60;;;29.40;86.50;;;;;;4989008;28;20465;-67
2023/09/06 10:02:05;;;;;;;7.20;3.97;;;29.40;85.10;;;;;;4984401;28;21349;-66
2023/09/06 10:04:36;;;;;;;4.63;3.90;;;29.50;86.90;;;;;;5001526;28;20505;-67
2023/09/06 10:07:06;;;;;;;6.23;4.00;;;29.60;86.30;;;;;;4979083;28;20474;-67
2023/09/06 10:09:38;;;;;;;4.30;3.60;;;29.60;85.10;;;;;;5000750;28;20485;-66
2023/09/06 10:12:07;;;;;;;5.93;4.33;;;29.60;83.20;;;;;;4975582;28;21048;-66
2023/09/06 10:14:34;;;;;;;7.00;3.50;;;29.70;85.80;;;;;;5007204;28;20579;-66
2023/09/06 10:17:03;;;;;;;4.80;4.10;;;29.80;84.90;;;;;;4988915;28;20464;-68
2023/09/06 10:19:29;;;;;;;5.03;3.50;;;29.80;81.10;;;;;;4990830;28;20492;-68
2023/09/06 10:21:57;;;;;;;5.57;4.20;;;29.80;82.60;;;;;;4997060;28;20476;-68
2023/09/06 10:24:26;;;;;;;5.27;4.10;;;29.80;83.80;;;;;;4983581;28;20485;-67
2023/09/06 10:26:55;;;;;;;3.77;3.43;;;29.80;80.40;;;;;;4994485;28;20443;-67
2023/09/06 10:29:25;;;;;;;4.00;3.20;;;29.80;81.60;;;;;;4987617;28;20452;-67
2023/09/06 10:31:53;;;;;;;5.00;3.70;;;29.80;80.40;;;;;;4997172;28;20488;-64
2023/09/06 10:34:21;;;;;;;5.50;3.77;;;29.80;83.40;;;;;;4997271;28;20469;-66
2023/09/06 10:36:55;;;;;;;4.33;3.80;;;29.60;78.30;;;;;;4988826;28;20482;-65
2023/09/06 10:39:23;;;;;;;5.17;3.60;;;29.70;79.60;;;;;;4993032;28;20535;-64
2023/09/06 10:42:29;;;;;;;4.57;3.67;;;29.80;84.00;;;;;;5006382;28;20444;-64
2023/09/06 10:45:10;;;;;;;5.17;3.90;;;29.90;81.90;;;;;;4986701;28;20488;-64
2023/09/06 10:47:38;;;;;;;4.30;3.70;;;30.10;81.20;;;;;;4990382;28;20488;-65
2023/09/06 10:50:19;;;;;;;8.80;4.17;;;30.10;80.90;;;;;;4999365;28;20527;-64
2023/09/06 10:52:50;;;;;;;3.97;3.57;;;30.10;82.20;;;;;;4995118;28;20452;-64
2023/09/06 10:55:20;;;;;;;5.27;3.67;;;30.20;81.50;;;;;;4982040;28;20544;-65
2023/09/06 10:57:50;;;;;;;5.30;4.40;;;30.40;81.80;;;;;;4990237;28;20482;-64
2023/09/06 11:00:21;;;;;;;4.20;3.53;;;30.20;77.50;;;;;;4985345;28;20478;-65
2023/09/06 11:03:21;;;;;;;8.13;3.90;;;29.90;78.30;;;;;;4995846;28;20979;-65
2023/09/06 11:05:58;;;;;;;6.73;4.27;;;30.10;82.70;;;;;;4975945;28;20458;-65
2023/09/06 11:08:33;;;;;;;4.93;3.87;;;30.30;80.50;;;;;;4990816;28;20902;-64
2023/09/06 11:11:01;;;;;;;3.73;3.20;;;30.40;80.40;;;;;;4982593;28;20804;-64
2023/09/06 11:13:32;;;;;;;3.87;3.47;;;30.60;80.60;;;;;;4988538;28;20471;-64
2023/09/06 11:16:00;;;;;;;3.87;3.27;;;30.70;78.40;;;;;;4997218;28;20479;-64
2023/09/06 11:18:28;;;;;;;3.37;3.07;;;30.80;81.20;;;;;;4985113;28;20464;-65
2023/09/06 11:20:55;;;;;;;4.30;3.70;;;30.90;80.10;;;;;;4995149;28;20468;-65
2023/09/06 11:23:23;;;;;;;4.60;3.13;;;31.00;80.00;;;;;;4993561;28;20495;-65
2023/09/06 11:25:58;;;;;;;4.70;3.77;;;31.00;79.70;;;;;;4982074;28;20481;-65
2023/09/06 11:28:28;;;;;;;4.63;2.97;;;31.10;78.50;;;;;;4977991;28;20455;-64
2023/09/06 11:30:55;;;;;;;4.60;3.40;;;31.20;76.90;;;;;;5009524;28;20546;-67
2023/09/06 11:33:31;;;;;;;5.03;3.53;;;31.20;75.10;;;;;;4999758;28;20445;-65
2023/09/06 11:36:03;;;;;;;3.30;2.87;;;31.00;76.20;;;;;;4997242;28;20473;-65
2023/09/06 11:38:33;;;;;;;3.70;3.30;;;30.90;74.60;;;;;;4980004;28;20895;-65
2023/09/06 11:41:03;;;;;;;3.93;3.33;;;31.00;76.70;;;;;;4971970;28;20541;-65
2023/09/06 11:43:31;;;;;;;5.10;3.70;;;31.00;75.10;;;;;;4981359;28;20546;-65
2023/09/06 11:46:03;;;;;;;4.07;3.43;;;31.10;75.00;;;;;;4990560;28;21360;-64
2023/09/06 11:48:34;;;;;;;4.00;2.47;;;31.30;76.00;;;;;;4993624;28;20473;-65
2023/09/06 11:51:08;;;;;;;5.83;3.70;;;31.10;69.10;;;;;;4994827;28;20629;-65
2023/09/06 11:53:40;;;;;;;4.60;3.23;;;31.20;75.50;;;;;;4975566;28;20505;-65
2023/09/06 11:56:11;;;;;;;3.47;3.00;;;30.90;68.30;;;;;;4998804;28;20820;-65
2023/09/06 11:58:45;;;;;;;3.97;3.00;;;31.00;71.70;;;;;;4978745;28;20612;-65
2023/09/06 12:01:12;;;;;;;3.93;3.60;;;31.00;71.80;;;;;;4977443;28;20482;-65
2023/09/06 12:03:47;;;;;;;4.43;3.20;;;30.80;69.80;;;;;;4979119;28;21405;-65
2023/09/06 12:06:14;;;;;;;4.40;3.00;;;30.90;71.60;;;;;;5002151;28;21165;-65
2023/09/06 12:08:41;;;;;;;2.90;2.47;;;30.90;70.20;;;;;;4999409;28;20452;-65
2023/09/06 12:11:18;;;;;;;3.50;3.20;;;30.90;69.80;;;;;;4992301;28;20526;-65
2023/09/06 12:13:46;;;;;;;16.73;3.03;;;31.20;73.90;;;;;;4993962;28;20461;-66
2023/09/06 12:16:15;;;;;;;3.10;2.30;;;31.40;69.60;;;;;;4994419;28;20566;-65
2023/09/06 12:18:42;;;;;;;8.83;3.30;;;31.60;71.60;;;;;;4990301;28;20549;-65
2023/09/06 12:21:10;;;;;;;4.43;3.60;;;31.70;72.10;;;;;;4983047;28;20457;-65
2023/09/06 12:23:38;;;;;;;3.70;3.37;;;31.80;70.30;;;;;;4982512;28;20487;-65
2023/09/06 12:26:05;;;;;;;2.80;2.40;;;31.90;72.10;;;;;;5000177;28;20451;-65
2023/09/06 12:28:32;;;;;;;5.40;3.60;;;31.90;68.10;;;;;;4984335;28;20547;-66
2023/09/06 12:31:02;;;;;;;3.37;2.60;;;32.00;68.00;;;;;;5003825;28;20486;-65
2023/09/06 12:33:30;;;;;;;4.00;2.77;;;32.00;71.20;;;;;;4987115;28;20492;-65
2023/09/06 12:36:00;;;;;;;8.00;3.07;;;32.10;71.10;;;;;;4984894;28;20488;-65
2023/09/06 12:38:30;;;;;;;3.03;2.73;;;32.10;69.60;;;;;;4979923;28;20599;-65
2023/09/06 12:40:57;;;;;;;3.33;3.03;;;32.30;68.20;;;;;;4997631;28;20731;-67
2023/09/06 12:43:26;;;;;;;3.70;3.37;;;32.40;68.60;;;;;;4979205;28;20489;-67
2023/09/06 12:45:53;;;;;;;4.00;3.20;;;32.50;69.40;;;;;;4987373;28;20748;-67
2023/09/06 12:48:21;;;;;;;3.50;3.20;;;32.60;68.20;;;;;;4973614;28;20495;-66
2023/09/06 12:50:49;;;;;;;3.60;3.17;;;32.40;68.20;;;;;;5000489;28;20473;-66
2023/09/06 12:53:16;;;;;;;3.93;2.60;;;32.10;62.80;;;;;;4996954;28;20911;-66
2023/09/06 12:55:44;;;;;;;4.00;3.60;;;32.00;66.60;;;;;;4995548;28;20484;-65